sensor_id;sensor_type;location;lat;lon;timestamp;P1;durP1;ratioP1;P2;durP2;ratioP2
39324;SDS011;25037;49.488;9.900;2023-12-20T00:01:05;5.10;;;2.70;;
39324;SDS011;25037;49.488;9.900;2023-12-20T00:03:31;6.55;;;3.22;;
39324;SDS011;25037;49.488;9.900;2023-12-20T00:06:07;6.10;;;3.50;;
39324;SDS011;25037;49.488;9.900;2023-12-20T00:08:35;4.82;;;2.92;;
39324;SDS011;25037;49.488;9.900;2023-12-20T00:11:01;5.43;;;3.40;;
39324;SDS011;25037;49.488;9.900;2023-12-20T00:13:28;5.32;;;3.15;;
39324;SDS011;25037;49.488;9.900;2023-12-20T00:15:55;5.25;;;2.60;;
39324;SDS011;25037;49.488;9.900;2023-12-20T00:18:21;5.47;;;2.97;;
39324;SDS011;25037;49.488;9.900;2023-12-20T00:23:15;4.75;;;3.05;;
39324;SDS011;25037;49.488;9.900;2023-12-20T00:25:42;5.22;;;2.55;;
39324;SDS011;25037;49.488;9.900;2023-12-20T00:28:08;4.63;;;2.88;;
39324;SDS011;25037;49.488;9.900;2023-12-20T00:30:35;7.70;;;3.42;;
39324;SDS011;25037;49.488;9.900;2023-12-20T00:33:02;4.47;;;2.75;;
39324;SDS011;25037;49.488;9.900;2023-12-20T00:37:58;5.38;;;2.83;;
39324;SDS011;25037;49.488;9.900;2023-12-20T00:40:25;4.80;;;2.95;;
39324;SDS011;25037;49.488;9.900;2023-12-20T00:42:52;5.35;;;2.97;;
39324;SDS011;25037;49.488;9.900;2023-12-20T00:45:18;6.35;;;2.58;;
39324;SDS011;25037;49.488;9.900;2023-12-20T00:47:45;4.60;;;2.67;;
39324;SDS011;25037;49.488;9.900;2023-12-20T00:50:12;5.25;;;2.33;;
39324;SDS011;25037;49.488;9.900;2023-12-20T00:52:39;4.10;;;2.38;;
39324;SDS011;25037;49.488;9.900;2023-12-20T00:55:06;3.65;;;2.38;;
39324;SDS011;25037;49.488;9.900;2023-12-20T00:57:34;4.40;;;2.30;;
39324;SDS011;25037;49.488;9.900;2023-12-20T01:00:01;4.75;;;2.22;;
39324;SDS011;25037;49.488;9.900;2023-12-20T01:02:28;5.20;;;2.75;;
39324;SDS011;25037;49.488;9.900;2023-12-20T01:07:21;5.07;;;2.55;;
39324;SDS011;25037;49.488;9.900;2023-12-20T01:09:48;4.43;;;2.58;;
39324;SDS011;25037;49.488;9.900;2023-12-20T01:12:15;9.55;;;2.13;;
39324;SDS011;25037;49.488;9.900;2023-12-20T01:14:41;4.22;;;2.60;;
39324;SDS011;25037;49.488;9.900;2023-12-20T01:17:08;4.55;;;1.73;;
39324;SDS011;25037;49.488;9.900;2023-12-20T01:19:35;4.30;;;2.17;;
39324;SDS011;25037;49.488;9.900;2023-12-20T01:22:02;4.55;;;2.22;;
39324;SDS011;25037;49.488;9.900;2023-12-20T01:24:29;3.90;;;1.67;;
39324;SDS011;25037;49.488;9.900;2023-12-20T01:26:56;5.07;;;2.08;;
39324;SDS011;25037;49.488;9.900;2023-12-20T01:29:23;3.50;;;2.00;;
39324;SDS011;25037;49.488;9.900;2023-12-20T01:31:50;3.38;;;2.00;;
39324;SDS011;25037;49.488;9.900;2023-12-20T01:34:17;4.93;;;2.15;;
39324;SDS011;25037;49.488;9.900;2023-12-20T01:36:44;3.28;;;1.60;;
39324;SDS011;25037;49.488;9.900;2023-12-20T01:39:11;3.17;;;1.98;;
39324;SDS011;25037;49.488;9.900;2023-12-20T01:41:50;2.58;;;1.58;;
39324;SDS011;25037;49.488;9.900;2023-12-20T01:44:17;4.05;;;2.00;;
39324;SDS011;25037;49.488;9.900;2023-12-20T01:46:44;4.05;;;1.75;;
39324;SDS011;25037;49.488;9.900;2023-12-20T01:49:11;3.33;;;1.55;;
39324;SDS011;25037;49.488;9.900;2023-12-20T01:54:05;2.90;;;1.40;;
39324;SDS011;25037;49.488;9.900;2023-12-20T01:56:32;2.97;;;1.08;;
39324;SDS011;25037;49.488;9.900;2023-12-20T02:01:26;2.25;;;0.90;;
39324;SDS011;25037;49.488;9.900;2023-12-20T02:03:55;2.47;;;1.30;;
39324;SDS011;25037;49.488;9.900;2023-12-20T02:06:23;2.38;;;1.00;;
39324;SDS011;25037;49.488;9.900;2023-12-20T02:08:51;2.75;;;1.40;;
39324;SDS011;25037;49.488;9.900;2023-12-20T02:11:18;2.70;;;1.73;;
39324;SDS011;25037;49.488;9.900;2023-12-20T02:13:45;2.63;;;1.45;;
39324;SDS011;25037;49.488;9.900;2023-12-20T02:16:11;2.75;;;1.48;;
39324;SDS011;25037;49.488;9.900;2023-12-20T02:18:39;2.25;;;1.30;;
39324;SDS011;25037;49.488;9.900;2023-12-20T02:23:32;2.75;;;1.40;;
39324;SDS011;25037;49.488;9.900;2023-12-20T02:25:59;2.83;;;1.30;;
39324;SDS011;25037;49.488;9.900;2023-12-20T02:28:26;2.20;;;1.20;;
39324;SDS011;25037;49.488;9.900;2023-12-20T02:33:20;2.90;;;1.10;;
39324;SDS011;25037;49.488;9.900;2023-12-20T02:35:46;2.70;;;1.13;;
39324;SDS011;25037;49.488;9.900;2023-12-20T02:38:14;2.30;;;1.30;;
39324;SDS011;25037;49.488;9.900;2023-12-20T02:40:40;3.10;;;1.23;;
39324;SDS011;25037;49.488;9.900;2023-12-20T02:43:15;2.13;;;1.20;;
39324;SDS011;25037;49.488;9.900;2023-12-20T02:45:42;2.60;;;1.27;;
39324;SDS011;25037;49.488;9.900;2023-12-20T02:48:09;2.10;;;1.10;;
39324;SDS011;25037;49.488;9.900;2023-12-20T02:50:35;2.22;;;1.00;;
39324;SDS011;25037;49.488;9.900;2023-12-20T02:53:02;3.15;;;1.35;;
39324;SDS011;25037;49.488;9.900;2023-12-20T02:55:29;2.42;;;1.17;;
39324;SDS011;25037;49.488;9.900;2023-12-20T02:57:56;2.63;;;1.55;;
39324;SDS011;25037;49.488;9.900;2023-12-20T03:00:22;1.83;;;0.88;;
39324;SDS011;25037;49.488;9.900;2023-12-20T03:02:50;3.28;;;2.00;;
39324;SDS011;25037;49.488;9.900;2023-12-20T03:05:16;2.08;;;1.05;;
39324;SDS011;25037;49.488;9.900;2023-12-20T03:07:43;3.38;;;1.15;;
39324;SDS011;25037;49.488;9.900;2023-12-20T03:10:11;1.95;;;1.20;;
39324;SDS011;25037;49.488;9.900;2023-12-20T03:12:49;1.58;;;0.95;;
39324;SDS011;25037;49.488;9.900;2023-12-20T03:15:16;3.38;;;1.55;;
39324;SDS011;25037;49.488;9.900;2023-12-20T03:17:42;2.30;;;1.20;;
39324;SDS011;25037;49.488;9.900;2023-12-20T03:20:10;2.30;;;1.15;;
39324;SDS011;25037;49.488;9.900;2023-12-20T03:22:37;2.25;;;1.25;;
39324;SDS011;25037;49.488;9.900;2023-12-20T03:25:03;2.10;;;1.33;;
39324;SDS011;25037;49.488;9.900;2023-12-20T03:27:30;2.22;;;0.73;;
39324;SDS011;25037;49.488;9.900;2023-12-20T03:29:57;2.28;;;1.08;;
39324;SDS011;25037;49.488;9.900;2023-12-20T03:32:24;2.45;;;1.00;;
39324;SDS011;25037;49.488;9.900;2023-12-20T03:34:50;1.80;;;0.75;;
39324;SDS011;25037;49.488;9.900;2023-12-20T03:37:17;1.95;;;1.05;;
39324;SDS011;25037;49.488;9.900;2023-12-20T03:39:44;1.80;;;0.95;;
39324;SDS011;25037;49.488;9.900;2023-12-20T03:42:11;1.70;;;0.98;;
39324;SDS011;25037;49.488;9.900;2023-12-20T03:44:39;2.53;;;1.45;;
39324;SDS011;25037;49.488;9.900;2023-12-20T03:47:08;2.25;;;0.93;;
39324;SDS011;25037;49.488;9.900;2023-12-20T03:49:35;2.15;;;1.20;;
39324;SDS011;25037;49.488;9.900;2023-12-20T03:52:03;2.15;;;1.08;;
39324;SDS011;25037;49.488;9.900;2023-12-20T03:54:30;2.75;;;1.80;;
39324;SDS011;25037;49.488;9.900;2023-12-20T03:56:57;1.80;;;1.00;;
39324;SDS011;25037;49.488;9.900;2023-12-20T03:59:24;1.85;;;1.20;;
39324;SDS011;25037;49.488;9.900;2023-12-20T04:01:51;2.13;;;1.10;;
39324;SDS011;25037;49.488;9.900;2023-12-20T04:04:18;2.00;;;1.20;;
39324;SDS011;25037;49.488;9.900;2023-12-20T04:06:45;2.10;;;1.08;;
39324;SDS011;25037;49.488;9.900;2023-12-20T04:09:12;1.40;;;0.93;;
39324;SDS011;25037;49.488;9.900;2023-12-20T04:11:39;3.63;;;1.27;;
39324;SDS011;25037;49.488;9.900;2023-12-20T04:14:05;1.65;;;0.90;;
39324;SDS011;25037;49.488;9.900;2023-12-20T04:16:33;1.40;;;0.77;;
39324;SDS011;25037;49.488;9.900;2023-12-20T04:21:27;2.25;;;1.17;;
39324;SDS011;25037;49.488;9.900;2023-12-20T04:23:54;2.10;;;1.00;;
39324;SDS011;25037;49.488;9.900;2023-12-20T04:26:21;2.63;;;1.27;;
39324;SDS011;25037;49.488;9.900;2023-12-20T04:28:47;1.90;;;0.95;;
39324;SDS011;25037;49.488;9.900;2023-12-20T04:31:16;1.83;;;0.98;;
39324;SDS011;25037;49.488;9.900;2023-12-20T04:33:43;2.40;;;1.17;;
39324;SDS011;25037;49.488;9.900;2023-12-20T04:36:10;2.25;;;1.15;;
39324;SDS011;25037;49.488;9.900;2023-12-20T04:38:37;1.75;;;0.95;;
39324;SDS011;25037;49.488;9.900;2023-12-20T04:41:03;1.65;;;0.60;;
39324;SDS011;25037;49.488;9.900;2023-12-20T04:43:30;1.60;;;1.00;;
39324;SDS011;25037;49.488;9.900;2023-12-20T04:45:57;1.90;;;0.63;;
39324;SDS011;25037;49.488;9.900;2023-12-20T04:48:23;2.15;;;1.02;;
39324;SDS011;25037;49.488;9.900;2023-12-20T04:50:50;2.22;;;1.33;;
39324;SDS011;25037;49.488;9.900;2023-12-20T04:53:17;1.77;;;0.95;;
39324;SDS011;25037;49.488;9.900;2023-12-20T04:55:44;1.75;;;0.65;;
39324;SDS011;25037;49.488;9.900;2023-12-20T04:58:10;2.20;;;1.27;;
39324;SDS011;25037;49.488;9.900;2023-12-20T05:00:37;2.67;;;1.30;;
39324;SDS011;25037;49.488;9.900;2023-12-20T05:03:04;2.83;;;1.30;;
39324;SDS011;25037;49.488;9.900;2023-12-20T05:05:30;1.83;;;1.15;;
39324;SDS011;25037;49.488;9.900;2023-12-20T05:07:58;3.13;;;1.10;;
39324;SDS011;25037;49.488;9.900;2023-12-20T05:10:25;3.30;;;1.25;;
39324;SDS011;25037;49.488;9.900;2023-12-20T05:12:53;1.95;;;1.13;;
39324;SDS011;25037;49.488;9.900;2023-12-20T05:15:20;2.50;;;1.27;;
39324;SDS011;25037;49.488;9.900;2023-12-20T05:17:46;1.85;;;1.05;;
39324;SDS011;25037;49.488;9.900;2023-12-20T05:20:13;2.45;;;1.25;;
39324;SDS011;25037;49.488;9.900;2023-12-20T05:22:41;3.03;;;1.63;;
39324;SDS011;25037;49.488;9.900;2023-12-20T05:25:07;2.75;;;1.27;;
39324;SDS011;25037;49.488;9.900;2023-12-20T05:27:34;3.60;;;1.48;;
39324;SDS011;25037;49.488;9.900;2023-12-20T05:30:01;3.63;;;1.35;;
39324;SDS011;25037;49.488;9.900;2023-12-20T05:34:55;2.45;;;1.23;;
39324;SDS011;25037;49.488;9.900;2023-12-20T05:37:21;2.75;;;1.75;;
39324;SDS011;25037;49.488;9.900;2023-12-20T05:39:48;2.58;;;1.23;;
39324;SDS011;25037;49.488;9.900;2023-12-20T05:42:15;3.42;;;1.67;;
39324;SDS011;25037;49.488;9.900;2023-12-20T05:44:41;3.28;;;1.80;;
39324;SDS011;25037;49.488;9.900;2023-12-20T05:47:08;3.47;;;1.70;;
39324;SDS011;25037;49.488;9.900;2023-12-20T05:49:35;2.83;;;1.70;;
39324;SDS011;25037;49.488;9.900;2023-12-20T05:52:01;3.30;;;1.90;;
39324;SDS011;25037;49.488;9.900;2023-12-20T05:54:28;2.88;;;1.50;;
39324;SDS011;25037;49.488;9.900;2023-12-20T05:56:55;3.65;;;1.70;;
39324;SDS011;25037;49.488;9.900;2023-12-20T05:59:22;3.00;;;1.60;;
39324;SDS011;25037;49.488;9.900;2023-12-20T06:01:48;3.50;;;1.85;;
39324;SDS011;25037;49.488;9.900;2023-12-20T06:04:15;2.75;;;1.67;;
39324;SDS011;25037;49.488;9.900;2023-12-20T06:06:42;2.85;;;1.77;;
39324;SDS011;25037;49.488;9.900;2023-12-20T06:09:10;3.03;;;1.77;;
39324;SDS011;25037;49.488;9.900;2023-12-20T06:11:37;3.30;;;1.90;;
39324;SDS011;25037;49.488;9.900;2023-12-20T06:14:03;3.63;;;2.03;;
39324;SDS011;25037;49.488;9.900;2023-12-20T06:16:31;2.97;;;1.77;;
39324;SDS011;25037;49.488;9.900;2023-12-20T06:18:57;2.50;;;1.08;;
39324;SDS011;25037;49.488;9.900;2023-12-20T06:21:24;3.25;;;1.80;;
39324;SDS011;25037;49.488;9.900;2023-12-20T06:23:51;3.35;;;2.20;;
39324;SDS011;25037;49.488;9.900;2023-12-20T06:26:17;3.17;;;2.00;;
39324;SDS011;25037;49.488;9.900;2023-12-20T06:28:44;3.25;;;1.48;;
39324;SDS011;25037;49.488;9.900;2023-12-20T06:31:11;3.05;;;1.75;;
39324;SDS011;25037;49.488;9.900;2023-12-20T06:33:38;3.03;;;1.80;;
39324;SDS011;25037;49.488;9.900;2023-12-20T06:36:07;2.65;;;1.30;;
39324;SDS011;25037;49.488;9.900;2023-12-20T06:38:36;4.25;;;1.60;;
39324;SDS011;25037;49.488;9.900;2023-12-20T06:41:03;3.33;;;1.70;;
39324;SDS011;25037;49.488;9.900;2023-12-20T06:43:30;3.25;;;1.70;;
39324;SDS011;25037;49.488;9.900;2023-12-20T06:46:14;2.60;;;1.50;;
39324;SDS011;25037;49.488;9.900;2023-12-20T06:48:40;3.00;;;1.80;;
39324;SDS011;25037;49.488;9.900;2023-12-20T06:51:10;3.47;;;1.60;;
39324;SDS011;25037;49.488;9.900;2023-12-20T06:53:39;5.70;;;1.63;;
39324;SDS011;25037;49.488;9.900;2023-12-20T06:56:05;2.83;;;1.40;;
39324;SDS011;25037;49.488;9.900;2023-12-20T06:58:33;3.28;;;1.88;;
39324;SDS011;25037;49.488;9.900;2023-12-20T07:01:00;3.45;;;1.45;;
39324;SDS011;25037;49.488;9.900;2023-12-20T07:03:27;2.83;;;1.30;;
39324;SDS011;25037;49.488;9.900;2023-12-20T07:05:53;3.58;;;1.73;;
39324;SDS011;25037;49.488;9.900;2023-12-20T07:08:20;2.97;;;1.35;;
39324;SDS011;25037;49.488;9.900;2023-12-20T07:10:47;2.72;;;1.40;;
39324;SDS011;25037;49.488;9.900;2023-12-20T07:13:13;3.15;;;1.30;;
39324;SDS011;25037;49.488;9.900;2023-12-20T07:15:40;2.90;;;1.77;;
39324;SDS011;25037;49.488;9.900;2023-12-20T07:18:07;2.72;;;1.70;;
39324;SDS011;25037;49.488;9.900;2023-12-20T07:20:34;2.47;;;1.40;;
39324;SDS011;25037;49.488;9.900;2023-12-20T07:23:00;2.67;;;1.67;;
39324;SDS011;25037;49.488;9.900;2023-12-20T07:25:27;2.15;;;1.02;;
39324;SDS011;25037;49.488;9.900;2023-12-20T07:27:54;3.13;;;2.10;;
39324;SDS011;25037;49.488;9.900;2023-12-20T07:30:21;2.95;;;1.75;;
39324;SDS011;25037;49.488;9.900;2023-12-20T07:32:48;2.63;;;1.08;;
39324;SDS011;25037;49.488;9.900;2023-12-20T07:35:18;2.70;;;1.67;;
39324;SDS011;25037;49.488;9.900;2023-12-20T07:37:45;3.55;;;2.28;;
39324;SDS011;25037;49.488;9.900;2023-12-20T07:42:40;5.25;;;2.20;;
39324;SDS011;25037;49.488;9.900;2023-12-20T07:45:06;2.90;;;1.80;;
39324;SDS011;25037;49.488;9.900;2023-12-20T07:47:33;2.92;;;1.65;;
39324;SDS011;25037;49.488;9.900;2023-12-20T07:50:00;3.40;;;2.15;;
39324;SDS011;25037;49.488;9.900;2023-12-20T07:52:27;3.53;;;2.28;;
39324;SDS011;25037;49.488;9.900;2023-12-20T07:54:53;4.63;;;2.75;;
39324;SDS011;25037;49.488;9.900;2023-12-20T07:57:20;6.30;;;2.22;;
39324;SDS011;25037;49.488;9.900;2023-12-20T08:02:14;4.55;;;1.42;;
39324;SDS011;25037;49.488;9.900;2023-12-20T08:04:41;2.85;;;1.42;;
39324;SDS011;25037;49.488;9.900;2023-12-20T08:07:07;2.80;;;1.75;;
39324;SDS011;25037;49.488;9.900;2023-12-20T08:09:34;3.30;;;1.83;;
39324;SDS011;25037;49.488;9.900;2023-12-20T08:12:02;5.03;;;2.40;;
39324;SDS011;25037;49.488;9.900;2023-12-20T08:16:57;3.67;;;1.70;;
39324;SDS011;25037;49.488;9.900;2023-12-20T08:19:24;3.78;;;1.70;;
39324;SDS011;25037;49.488;9.900;2023-12-20T08:21:51;4.15;;;1.58;;
39324;SDS011;25037;49.488;9.900;2023-12-20T08:24:17;5.68;;;1.50;;
39324;SDS011;25037;49.488;9.900;2023-12-20T08:26:44;3.22;;;1.67;;
39324;SDS011;25037;49.488;9.900;2023-12-20T08:29:13;4.28;;;1.63;;
39324;SDS011;25037;49.488;9.900;2023-12-20T08:31:40;3.83;;;1.88;;
39324;SDS011;25037;49.488;9.900;2023-12-20T08:34:07;5.28;;;1.98;;
39324;SDS011;25037;49.488;9.900;2023-12-20T08:36:34;2.95;;;1.63;;
39324;SDS011;25037;49.488;9.900;2023-12-20T08:39:01;3.28;;;1.60;;
39324;SDS011;25037;49.488;9.900;2023-12-20T08:41:29;5.38;;;2.50;;
39324;SDS011;25037;49.488;9.900;2023-12-20T08:43:56;3.78;;;1.77;;
39324;SDS011;25037;49.488;9.900;2023-12-20T08:46:23;3.10;;;1.60;;
39324;SDS011;25037;49.488;9.900;2023-12-20T08:48:49;2.97;;;1.48;;
39324;SDS011;25037;49.488;9.900;2023-12-20T08:53:43;7.90;;;1.90;;
39324;SDS011;25037;49.488;9.900;2023-12-20T08:56:11;3.40;;;1.98;;
39324;SDS011;25037;49.488;9.900;2023-12-20T08:58:38;4.45;;;2.05;;
39324;SDS011;25037;49.488;9.900;2023-12-20T09:01:05;4.00;;;1.88;;
39324;SDS011;25037;49.488;9.900;2023-12-20T09:03:32;5.68;;;2.00;;
39324;SDS011;25037;49.488;9.900;2023-12-20T09:05:58;4.25;;;1.92;;
39324;SDS011;25037;49.488;9.900;2023-12-20T09:08:25;7.75;;;2.40;;
39324;SDS011;25037;49.488;9.900;2023-12-20T09:10:52;2.60;;;1.70;;
39324;SDS011;25037;49.488;9.900;2023-12-20T09:13:18;3.17;;;1.80;;
39324;SDS011;25037;49.488;9.900;2023-12-20T09:15:45;5.45;;;2.28;;
39324;SDS011;25037;49.488;9.900;2023-12-20T09:18:12;4.20;;;2.60;;
39324;SDS011;25037;49.488;9.900;2023-12-20T09:20:38;6.70;;;2.22;;
39324;SDS011;25037;49.488;9.900;2023-12-20T09:23:09;4.20;;;2.10;;
39324;SDS011;25037;49.488;9.900;2023-12-20T09:25:36;5.60;;;2.17;;
39324;SDS011;25037;49.488;9.900;2023-12-20T09:28:03;3.45;;;2.45;;
39324;SDS011;25037;49.488;9.900;2023-12-20T09:32:56;5.78;;;1.70;;
39324;SDS011;25037;49.488;9.900;2023-12-20T09:35:23;3.33;;;1.33;;
39324;SDS011;25037;49.488;9.900;2023-12-20T09:37:51;4.65;;;1.35;;
39324;SDS011;25037;49.488;9.900;2023-12-20T09:40:18;3.70;;;2.10;;
39324;SDS011;25037;49.488;9.900;2023-12-20T09:45:34;4.60;;;1.48;;
39324;SDS011;25037;49.488;9.900;2023-12-20T09:48:01;3.33;;;1.90;;
39324;SDS011;25037;49.488;9.900;2023-12-20T09:50:30;3.60;;;1.80;;
39324;SDS011;25037;49.488;9.900;2023-12-20T09:52:58;5.10;;;2.00;;
39324;SDS011;25037;49.488;9.900;2023-12-20T09:55:28;6.03;;;2.17;;
39324;SDS011;25037;49.488;9.900;2023-12-20T09:57:59;5.40;;;1.75;;
39324;SDS011;25037;49.488;9.900;2023-12-20T10:00:26;4.82;;;2.10;;
39324;SDS011;25037;49.488;9.900;2023-12-20T10:05:29;3.33;;;1.38;;
39324;SDS011;25037;49.488;9.900;2023-12-20T10:07:58;4.22;;;2.03;;
39324;SDS011;25037;49.488;9.900;2023-12-20T10:10:26;4.93;;;2.45;;
39324;SDS011;25037;49.488;9.900;2023-12-20T10:13:10;6.63;;;1.95;;
39324;SDS011;25037;49.488;9.900;2023-12-20T10:15:39;4.30;;;1.98;;
39324;SDS011;25037;49.488;9.900;2023-12-20T10:18:07;4.32;;;2.15;;
39324;SDS011;25037;49.488;9.900;2023-12-20T10:20:34;6.97;;;2.17;;
39324;SDS011;25037;49.488;9.900;2023-12-20T10:23:01;4.93;;;2.30;;
39324;SDS011;25037;49.488;9.900;2023-12-20T10:25:28;6.05;;;2.05;;
39324;SDS011;25037;49.488;9.900;2023-12-20T10:28:11;5.78;;;2.15;;
39324;SDS011;25037;49.488;9.900;2023-12-20T10:30:46;4.05;;;1.95;;
39324;SDS011;25037;49.488;9.900;2023-12-20T10:33:13;3.72;;;2.10;;
39324;SDS011;25037;49.488;9.900;2023-12-20T10:35:49;5.28;;;1.88;;
39324;SDS011;25037;49.488;9.900;2023-12-20T10:38:16;6.32;;;2.17;;
39324;SDS011;25037;49.488;9.900;2023-12-20T10:40:43;6.53;;;2.53;;
39324;SDS011;25037;49.488;9.900;2023-12-20T10:43:12;4.97;;;2.03;;
39324;SDS011;25037;49.488;9.900;2023-12-20T10:45:40;8.75;;;2.25;;
39324;SDS011;25037;49.488;9.900;2023-12-20T10:48:09;4.65;;;2.38;;
39324;SDS011;25037;49.488;9.900;2023-12-20T10:50:38;6.00;;;1.88;;
39324;SDS011;25037;49.488;9.900;2023-12-20T10:53:06;4.95;;;1.98;;
39324;SDS011;25037;49.488;9.900;2023-12-20T10:55:33;8.77;;;2.78;;
39324;SDS011;25037;49.488;9.900;2023-12-20T10:58:01;5.07;;;1.77;;
39324;SDS011;25037;49.488;9.900;2023-12-20T11:00:30;5.43;;;1.70;;
39324;SDS011;25037;49.488;9.900;2023-12-20T11:03:01;6.50;;;2.40;;
39324;SDS011;25037;49.488;9.900;2023-12-20T11:05:36;6.45;;;2.28;;
39324;SDS011;25037;49.488;9.900;2023-12-20T11:08:22;3.95;;;1.73;;
39324;SDS011;25037;49.488;9.900;2023-12-20T11:11:03;5.38;;;2.55;;
39324;SDS011;25037;49.488;9.900;2023-12-20T11:13:43;7.18;;;1.92;;
39324;SDS011;25037;49.488;9.900;2023-12-20T11:16:20;6.22;;;2.00;;
39324;SDS011;25037;49.488;9.900;2023-12-20T11:18:50;4.88;;;1.40;;
39324;SDS011;25037;49.488;9.900;2023-12-20T11:21:17;5.65;;;1.95;;
39324;SDS011;25037;49.488;9.900;2023-12-20T11:23:44;4.45;;;2.20;;
39324;SDS011;25037;49.488;9.900;2023-12-20T11:26:10;5.03;;;1.80;;
39324;SDS011;25037;49.488;9.900;2023-12-20T11:28:37;5.63;;;1.60;;
39324;SDS011;25037;49.488;9.900;2023-12-20T11:31:04;4.43;;;2.00;;
39324;SDS011;25037;49.488;9.900;2023-12-20T11:33:36;7.13;;;1.98;;
39324;SDS011;25037;49.488;9.900;2023-12-20T11:36:06;4.22;;;1.67;;
39324;SDS011;25037;49.488;9.900;2023-12-20T11:38:49;3.90;;;1.55;;
39324;SDS011;25037;49.488;9.900;2023-12-20T11:41:22;6.03;;;2.30;;
39324;SDS011;25037;49.488;9.900;2023-12-20T11:43:51;6.22;;;1.85;;
39324;SDS011;25037;49.488;9.900;2023-12-20T11:46:19;6.85;;;1.58;;
39324;SDS011;25037;49.488;9.900;2023-12-20T11:48:47;6.95;;;1.65;;
39324;SDS011;25037;49.488;9.900;2023-12-20T11:51:14;4.13;;;1.60;;
39324;SDS011;25037;49.488;9.900;2023-12-20T11:53:41;5.25;;;2.13;;
39324;SDS011;25037;49.488;9.900;2023-12-20T11:56:09;4.22;;;1.60;;
39324;SDS011;25037;49.488;9.900;2023-12-20T11:58:36;3.47;;;1.98;;
39324;SDS011;25037;49.488;9.900;2023-12-20T12:01:03;5.32;;;1.63;;
39324;SDS011;25037;49.488;9.900;2023-12-20T12:03:33;5.35;;;2.38;;
39324;SDS011;25037;49.488;9.900;2023-12-20T12:06:00;4.72;;;1.77;;
39324;SDS011;25037;49.488;9.900;2023-12-20T12:08:31;5.65;;;1.70;;
39324;SDS011;25037;49.488;9.900;2023-12-20T12:10:58;4.20;;;1.75;;
39324;SDS011;25037;49.488;9.900;2023-12-20T12:13:24;4.90;;;1.40;;
39324;SDS011;25037;49.488;9.900;2023-12-20T12:15:53;5.35;;;1.75;;
39324;SDS011;25037;49.488;9.900;2023-12-20T12:18:20;5.85;;;1.42;;
39324;SDS011;25037;49.488;9.900;2023-12-20T12:23:14;7.70;;;1.65;;
39324;SDS011;25037;49.488;9.900;2023-12-20T12:25:48;3.05;;;1.33;;
39324;SDS011;25037;49.488;9.900;2023-12-20T12:28:15;6.93;;;1.33;;
39324;SDS011;25037;49.488;9.900;2023-12-20T12:30:42;7.65;;;2.15;;
39324;SDS011;25037;49.488;9.900;2023-12-20T12:33:21;3.72;;;1.77;;
39324;SDS011;25037;49.488;9.900;2023-12-20T12:35:48;8.85;;;1.58;;
39324;SDS011;25037;49.488;9.900;2023-12-20T12:38:15;7.85;;;1.95;;
39324;SDS011;25037;49.488;9.900;2023-12-20T12:40:43;4.65;;;1.80;;
39324;SDS011;25037;49.488;9.900;2023-12-20T12:43:10;4.80;;;1.88;;
39324;SDS011;25037;49.488;9.900;2023-12-20T12:45:36;3.80;;;1.40;;
39324;SDS011;25037;49.488;9.900;2023-12-20T12:48:03;8.52;;;1.88;;
39324;SDS011;25037;49.488;9.900;2023-12-20T12:50:30;6.68;;;1.80;;
39324;SDS011;25037;49.488;9.900;2023-12-20T12:52:57;4.22;;;1.35;;
39324;SDS011;25037;49.488;9.900;2023-12-20T12:55:24;8.48;;;2.53;;
39324;SDS011;25037;49.488;9.900;2023-12-20T12:57:50;6.03;;;2.08;;
39324;SDS011;25037;49.488;9.900;2023-12-20T13:00:17;5.45;;;1.58;;
39324;SDS011;25037;49.488;9.900;2023-12-20T13:02:45;5.95;;;1.40;;
39324;SDS011;25037;49.488;9.900;2023-12-20T13:05:12;6.80;;;1.77;;
39324;SDS011;25037;49.488;9.900;2023-12-20T13:07:39;5.47;;;1.35;;
39324;SDS011;25037;49.488;9.900;2023-12-20T13:10:06;3.25;;;1.55;;
39324;SDS011;25037;49.488;9.900;2023-12-20T13:14:59;4.25;;;1.92;;
39324;SDS011;25037;49.488;9.900;2023-12-20T13:17:26;3.00;;;1.55;;
39324;SDS011;25037;49.488;9.900;2023-12-20T13:19:56;6.45;;;1.80;;
39324;SDS011;25037;49.488;9.900;2023-12-20T13:22:23;7.55;;;1.70;;
39324;SDS011;25037;49.488;9.900;2023-12-20T13:24:50;7.32;;;1.85;;
39324;SDS011;25037;49.488;9.900;2023-12-20T13:27:16;7.20;;;1.50;;
39324;SDS011;25037;49.488;9.900;2023-12-20T13:29:43;8.30;;;1.85;;
39324;SDS011;25037;49.488;9.900;2023-12-20T13:32:10;6.13;;;1.67;;
39324;SDS011;25037;49.488;9.900;2023-12-20T13:34:37;3.45;;;1.40;;
39324;SDS011;25037;49.488;9.900;2023-12-20T13:37:03;5.05;;;1.63;;
39324;SDS011;25037;49.488;9.900;2023-12-20T13:39:30;6.50;;;1.25;;
39324;SDS011;25037;49.488;9.900;2023-12-20T13:41:57;4.03;;;1.77;;
39324;SDS011;25037;49.488;9.900;2023-12-20T13:44:26;8.75;;;1.67;;
39324;SDS011;25037;49.488;9.900;2023-12-20T13:46:53;5.10;;;1.67;;
39324;SDS011;25037;49.488;9.900;2023-12-20T13:49:20;7.40;;;2.80;;
39324;SDS011;25037;49.488;9.900;2023-12-20T13:51:47;6.53;;;1.95;;
39324;SDS011;25037;49.488;9.900;2023-12-20T13:54:14;5.85;;;1.60;;
39324;SDS011;25037;49.488;9.900;2023-12-20T13:56:42;6.80;;;1.98;;
39324;SDS011;25037;49.488;9.900;2023-12-20T13:59:27;8.65;;;2.33;;
39324;SDS011;25037;49.488;9.900;2023-12-20T14:01:53;6.18;;;2.10;;
39324;SDS011;25037;49.488;9.900;2023-12-20T14:04:20;4.05;;;1.52;;
39324;SDS011;25037;49.488;9.900;2023-12-20T14:07:07;9.75;;;2.20;;
39324;SDS011;25037;49.488;9.900;2023-12-20T14:09:35;5.50;;;1.77;;
39324;SDS011;25037;49.488;9.900;2023-12-20T14:12:02;6.72;;;2.22;;
39324;SDS011;25037;49.488;9.900;2023-12-20T14:14:29;5.38;;;2.08;;
39324;SDS011;25037;49.488;9.900;2023-12-20T14:16:56;6.47;;;2.20;;
39324;SDS011;25037;49.488;9.900;2023-12-20T14:19:22;6.72;;;1.95;;
39324;SDS011;25037;49.488;9.900;2023-12-20T14:21:50;5.32;;;1.50;;
39324;SDS011;25037;49.488;9.900;2023-12-20T14:24:17;5.75;;;2.58;;
39324;SDS011;25037;49.488;9.900;2023-12-20T14:26:43;4.75;;;2.08;;
39324;SDS011;25037;49.488;9.900;2023-12-20T14:29:10;5.47;;;1.98;;
39324;SDS011;25037;49.488;9.900;2023-12-20T14:31:37;8.77;;;2.20;;
39324;SDS011;25037;49.488;9.900;2023-12-20T14:34:05;5.82;;;2.10;;
39324;SDS011;25037;49.488;9.900;2023-12-20T14:36:33;9.98;;;1.90;;
39324;SDS011;25037;49.488;9.900;2023-12-20T14:39:00;8.18;;;2.63;;
39324;SDS011;25037;49.488;9.900;2023-12-20T14:41:28;4.57;;;1.98;;
39324;SDS011;25037;49.488;9.900;2023-12-20T14:43:57;6.03;;;1.83;;
39324;SDS011;25037;49.488;9.900;2023-12-20T14:46:26;5.15;;;2.40;;
39324;SDS011;25037;49.488;9.900;2023-12-20T14:48:52;4.93;;;2.03;;
39324;SDS011;25037;49.488;9.900;2023-12-20T14:51:19;5.70;;;2.50;;
39324;SDS011;25037;49.488;9.900;2023-12-20T14:53:46;5.13;;;2.25;;
39324;SDS011;25037;49.488;9.900;2023-12-20T14:56:13;6.40;;;2.22;;
39324;SDS011;25037;49.488;9.900;2023-12-20T14:58:41;4.03;;;1.50;;
39324;SDS011;25037;49.488;9.900;2023-12-20T15:01:07;10.05;;;2.42;;
39324;SDS011;25037;49.488;9.900;2023-12-20T15:03:35;5.53;;;1.80;;
39324;SDS011;25037;49.488;9.900;2023-12-20T15:06:02;9.18;;;2.72;;
39324;SDS011;25037;49.488;9.900;2023-12-20T15:10:56;7.68;;;2.15;;
39324;SDS011;25037;49.488;9.900;2023-12-20T15:13:23;10.95;;;2.58;;
39324;SDS011;25037;49.488;9.900;2023-12-20T15:18:17;6.53;;;1.85;;
39324;SDS011;25037;49.488;9.900;2023-12-20T15:20:44;8.35;;;2.38;;
39324;SDS011;25037;49.488;9.900;2023-12-20T15:23:11;6.38;;;1.95;;
39324;SDS011;25037;49.488;9.900;2023-12-20T15:25:38;7.28;;;2.22;;
39324;SDS011;25037;49.488;9.900;2023-12-20T15:30:32;8.07;;;2.10;;
39324;SDS011;25037;49.488;9.900;2023-12-20T15:32:59;6.50;;;2.13;;
39324;SDS011;25037;49.488;9.900;2023-12-20T15:35:31;9.18;;;2.55;;
39324;SDS011;25037;49.488;9.900;2023-12-20T15:37:58;5.25;;;1.63;;
39324;SDS011;25037;49.488;9.900;2023-12-20T15:42:52;6.70;;;1.63;;
39324;SDS011;25037;49.488;9.900;2023-12-20T15:45:19;7.13;;;2.20;;